sensor_id;sensor_type;location;lat;lon;timestamp;P1;durP1;ratioP1;P2;durP2;ratioP2
29662;SDS011;16578;53.266;7.920;2023-04-25T00:01:14;21.95;;;4.95;;
29662;SDS011;16578;53.266;7.920;2023-04-25T00:03:40;19.45;;;5.25;;
29662;SDS011;16578;53.266;7.920;2023-04-25T00:06:06;18.35;;;4.13;;
29662;SDS011;16578;53.266;7.920;2023-04-25T00:08:32;21.52;;;4.50;;
29662;SDS011;16578;53.266;7.920;2023-04-25T00:10:58;16.77;;;4.38;;
29662;SDS011;16578;53.266;7.920;2023-04-25T00:13:24;15.88;;;4.25;;
29662;SDS011;16578;53.266;7.920;2023-04-25T00:15:50;19.63;;;4.65;;
29662;SDS011;16578;53.266;7.920;2023-04-25T00:18:17;14.95;;;4.30;;
29662;SDS011;16578;53.266;7.920;2023-04-25T00:20:44;15.65;;;4.00;;
29662;SDS011;16578;53.266;7.920;2023-04-25T00:23:14;18.77;;;4.68;;
29662;SDS011;16578;53.266;7.920;2023-04-25T00:25:46;18.48;;;4.85;;
29662;SDS011;16578;53.266;7.920;2023-04-25T00:28:12;22.05;;;4.93;;
29662;SDS011;16578;53.266;7.920;2023-04-25T00:30:39;15.68;;;3.45;;
29662;SDS011;16578;53.266;7.920;2023-04-25T00:33:05;14.57;;;4.15;;
29662;SDS011;16578;53.266;7.920;2023-04-25T00:35:31;18.17;;;4.25;;
29662;SDS011;16578;53.266;7.920;2023-04-25T00:37:57;13.18;;;3.97;;
29662;SDS011;16578;53.266;7.920;2023-04-25T00:40:22;15.02;;;4.68;;
29662;SDS011;16578;53.266;7.920;2023-04-25T00:42:48;13.95;;;4.07;;
29662;SDS011;16578;53.266;7.920;2023-04-25T00:45:16;15.20;;;3.90;;
29662;SDS011;16578;53.266;7.920;2023-04-25T00:47:43;14.32;;;3.65;;
29662;SDS011;16578;53.266;7.920;2023-04-25T00:50:09;25.88;;;5.28;;
29662;SDS011;16578;53.266;7.920;2023-04-25T00:52:35;17.30;;;4.30;;
29662;SDS011;16578;53.266;7.920;2023-04-25T00:55:09;21.20;;;5.68;;
29662;SDS011;16578;53.266;7.920;2023-04-25T00:57:35;13.15;;;3.95;;
29662;SDS011;16578;53.266;7.920;2023-04-25T01:00:01;19.73;;;3.92;;
29662;SDS011;16578;53.266;7.920;2023-04-25T01:04:56;12.88;;;3.88;;
29662;SDS011;16578;53.266;7.920;2023-04-25T01:07:22;19.80;;;4.28;;
29662;SDS011;16578;53.266;7.920;2023-04-25T01:09:48;8.93;;;3.63;;
29662;SDS011;16578;53.266;7.920;2023-04-25T01:12:16;17.83;;;4.22;;
29662;SDS011;16578;53.266;7.920;2023-04-25T01:14:41;13.85;;;4.53;;
29662;SDS011;16578;53.266;7.920;2023-04-25T01:17:07;16.40;;;4.00;;
29662;SDS011;16578;53.266;7.920;2023-04-25T01:19:34;16.40;;;3.92;;
29662;SDS011;16578;53.266;7.920;2023-04-25T01:22:00;15.20;;;4.03;;
29662;SDS011;16578;53.266;7.920;2023-04-25T01:24:26;13.90;;;4.03;;
29662;SDS011;16578;53.266;7.920;2023-04-25T01:26:53;16.08;;;4.03;;
29662;SDS011;16578;53.266;7.920;2023-04-25T01:31:47;12.63;;;3.53;;
29662;SDS011;16578;53.266;7.920;2023-04-25T01:34:13;11.05;;;3.90;;
29662;SDS011;16578;53.266;7.920;2023-04-25T01:36:38;16.48;;;4.03;;
29662;SDS011;16578;53.266;7.920;2023-04-25T01:39:04;14.27;;;4.15;;
29662;SDS011;16578;53.266;7.920;2023-04-25T01:41:31;12.13;;;3.55;;
29662;SDS011;16578;53.266;7.920;2023-04-25T01:43:57;12.07;;;4.13;;
29662;SDS011;16578;53.266;7.920;2023-04-25T01:46:23;16.25;;;3.72;;
29662;SDS011;16578;53.266;7.920;2023-04-25T01:48:48;16.02;;;4.80;;
29662;SDS011;16578;53.266;7.920;2023-04-25T01:51:14;15.90;;;4.47;;
29662;SDS011;16578;53.266;7.920;2023-04-25T01:53:40;14.80;;;3.92;;
29662;SDS011;16578;53.266;7.920;2023-04-25T01:56:07;13.52;;;3.53;;
29662;SDS011;16578;53.266;7.920;2023-04-25T01:58:33;10.70;;;3.10;;
29662;SDS011;16578;53.266;7.920;2023-04-25T02:00:58;16.45;;;3.25;;
29662;SDS011;16578;53.266;7.920;2023-04-25T02:03:24;11.43;;;3.28;;
29662;SDS011;16578;53.266;7.920;2023-04-25T02:05:49;17.00;;;3.83;;
29662;SDS011;16578;53.266;7.920;2023-04-25T02:08:16;13.40;;;3.40;;
29662;SDS011;16578;53.266;7.920;2023-04-25T02:10:42;14.25;;;3.25;;
29662;SDS011;16578;53.266;7.920;2023-04-25T02:13:07;9.77;;;3.42;;
29662;SDS011;16578;53.266;7.920;2023-04-25T02:15:33;14.43;;;3.83;;
29662;SDS011;16578;53.266;7.920;2023-04-25T02:17:59;12.10;;;3.03;;
29662;SDS011;16578;53.266;7.920;2023-04-25T02:20:25;12.32;;;3.28;;
29662;SDS011;16578;53.266;7.920;2023-04-25T02:22:51;17.00;;;4.05;;
29662;SDS011;16578;53.266;7.920;2023-04-25T02:25:17;11.13;;;3.40;;
29662;SDS011;16578;53.266;7.920;2023-04-25T02:27:45;14.73;;;3.83;;
29662;SDS011;16578;53.266;7.920;2023-04-25T02:30:11;13.88;;;4.65;;
29662;SDS011;16578;53.266;7.920;2023-04-25T02:32:37;12.07;;;3.13;;
29662;SDS011;16578;53.266;7.920;2023-04-25T02:35:04;8.43;;;3.17;;
29662;SDS011;16578;53.266;7.920;2023-04-25T02:37:30;17.55;;;3.38;;
29662;SDS011;16578;53.266;7.920;2023-04-25T02:39:57;15.15;;;3.10;;
29662;SDS011;16578;53.266;7.920;2023-04-25T02:42:22;13.32;;;3.78;;
29662;SDS011;16578;53.266;7.920;2023-04-25T02:44:48;11.50;;;3.33;;
29662;SDS011;16578;53.266;7.920;2023-04-25T02:47:13;15.27;;;3.10;;
29662;SDS011;16578;53.266;7.920;2023-04-25T02:49:39;11.07;;;3.40;;
29662;SDS011;16578;53.266;7.920;2023-04-25T02:52:05;14.52;;;3.20;;
29662;SDS011;16578;53.266;7.920;2023-04-25T02:54:31;10.75;;;3.03;;
29662;SDS011;16578;53.266;7.920;2023-04-25T02:56:56;15.60;;;3.15;;
29662;SDS011;16578;53.266;7.920;2023-04-25T02:59:22;16.70;;;3.78;;
29662;SDS011;16578;53.266;7.920;2023-04-25T03:01:47;19.48;;;3.25;;
29662;SDS011;16578;53.266;7.920;2023-04-25T03:04:13;10.93;;;3.53;;
29662;SDS011;16578;53.266;7.920;2023-04-25T03:06:38;9.15;;;2.70;;
29662;SDS011;16578;53.266;7.920;2023-04-25T03:09:04;9.02;;;2.78;;
29662;SDS011;16578;53.266;7.920;2023-04-25T03:11:29;16.73;;;3.15;;
29662;SDS011;16578;53.266;7.920;2023-04-25T03:13:55;18.50;;;3.83;;
29662;SDS011;16578;53.266;7.920;2023-04-25T03:16:21;8.43;;;2.60;;
29662;SDS011;16578;53.266;7.920;2023-04-25T03:18:47;13.57;;;3.08;;
29662;SDS011;16578;53.266;7.920;2023-04-25T03:21:12;13.57;;;3.13;;
29662;SDS011;16578;53.266;7.920;2023-04-25T03:23:38;9.40;;;2.85;;
29662;SDS011;16578;53.266;7.920;2023-04-25T03:26:04;13.43;;;3.63;;
29662;SDS011;16578;53.266;7.920;2023-04-25T03:28:29;15.07;;;3.17;;
29662;SDS011;16578;53.266;7.920;2023-04-25T03:30:55;10.38;;;2.67;;
29662;SDS011;16578;53.266;7.920;2023-04-25T03:33:20;12.38;;;3.20;;
29662;SDS011;16578;53.266;7.920;2023-04-25T03:35:46;13.25;;;2.97;;
29662;SDS011;16578;53.266;7.920;2023-04-25T03:38:12;14.07;;;3.30;;
29662;SDS011;16578;53.266;7.920;2023-04-25T03:40:37;12.98;;;3.22;;
29662;SDS011;16578;53.266;7.920;2023-04-25T03:43:03;8.55;;;2.95;;
29662;SDS011;16578;53.266;7.920;2023-04-25T03:45:28;9.77;;;2.58;;
29662;SDS011;16578;53.266;7.920;2023-04-25T03:47:54;10.73;;;2.50;;
29662;SDS011;16578;53.266;7.920;2023-04-25T03:50:19;10.88;;;2.30;;
29662;SDS011;16578;53.266;7.920;2023-04-25T03:52:45;7.10;;;2.33;;
29662;SDS011;16578;53.266;7.920;2023-04-25T03:55:11;12.70;;;2.97;;
29662;SDS011;16578;53.266;7.920;2023-04-25T03:57:36;8.10;;;2.65;;
29662;SDS011;16578;53.266;7.920;2023-04-25T04:00:02;11.32;;;3.03;;
29662;SDS011;16578;53.266;7.920;2023-04-25T04:02:29;9.38;;;2.90;;
29662;SDS011;16578;53.266;7.920;2023-04-25T04:04:54;8.65;;;2.85;;
29662;SDS011;16578;53.266;7.920;2023-04-25T04:07:21;9.77;;;2.90;;
29662;SDS011;16578;53.266;7.920;2023-04-25T04:09:47;9.23;;;2.63;;
29662;SDS011;16578;53.266;7.920;2023-04-25T04:12:12;7.30;;;2.35;;
29662;SDS011;16578;53.266;7.920;2023-04-25T04:14:38;5.38;;;2.25;;
29662;SDS011;16578;53.266;7.920;2023-04-25T04:17:03;7.90;;;2.30;;
29662;SDS011;16578;53.266;7.920;2023-04-25T04:19:30;11.30;;;2.30;;
29662;SDS011;16578;53.266;7.920;2023-04-25T04:21:56;12.18;;;2.08;;
29662;SDS011;16578;53.266;7.920;2023-04-25T04:24:21;5.90;;;2.08;;
29662;SDS011;16578;53.266;7.920;2023-04-25T04:26:47;11.57;;;2.15;;
29662;SDS011;16578;53.266;7.920;2023-04-25T04:29:12;9.88;;;2.20;;
29662;SDS011;16578;53.266;7.920;2023-04-25T04:31:45;7.85;;;2.70;;
29662;SDS011;16578;53.266;7.920;2023-04-25T04:34:14;6.45;;;2.60;;
29662;SDS011;16578;53.266;7.920;2023-04-25T04:36:41;7.85;;;2.53;;
29662;SDS011;16578;53.266;7.920;2023-04-25T04:39:07;6.18;;;2.28;;
29662;SDS011;16578;53.266;7.920;2023-04-25T04:41:34;9.88;;;2.42;;
29662;SDS011;16578;53.266;7.920;2023-04-25T04:43:59;6.50;;;2.10;;
29662;SDS011;16578;53.266;7.920;2023-04-25T04:46:26;10.07;;;2.60;;
29662;SDS011;16578;53.266;7.920;2023-04-25T04:48:53;9.18;;;2.85;;
29662;SDS011;16578;53.266;7.920;2023-04-25T04:51:18;8.65;;;2.42;;
29662;SDS011;16578;53.266;7.920;2023-04-25T04:53:45;7.07;;;2.10;;
29662;SDS011;16578;53.266;7.920;2023-04-25T04:56:11;8.45;;;2.38;;
29662;SDS011;16578;53.266;7.920;2023-04-25T04:58:36;9.07;;;2.90;;
29662;SDS011;16578;53.266;7.920;2023-04-25T05:01:02;6.10;;;1.85;;
29662;SDS011;16578;53.266;7.920;2023-04-25T05:03:28;10.35;;;2.92;;
29662;SDS011;16578;53.266;7.920;2023-04-25T05:05:53;7.68;;;2.30;;
29662;SDS011;16578;53.266;7.920;2023-04-25T05:08:19;8.98;;;2.78;;
29662;SDS011;16578;53.266;7.920;2023-04-25T05:10:44;10.27;;;2.38;;
29662;SDS011;16578;53.266;7.920;2023-04-25T05:13:10;6.57;;;2.38;;
29662;SDS011;16578;53.266;7.920;2023-04-25T05:15:35;9.35;;;2.60;;
29662;SDS011;16578;53.266;7.920;2023-04-25T05:18:01;7.30;;;2.03;;
29662;SDS011;16578;53.266;7.920;2023-04-25T05:20:27;7.00;;;2.50;;
29662;SDS011;16578;53.266;7.920;2023-04-25T05:22:52;7.88;;;2.85;;
29662;SDS011;16578;53.266;7.920;2023-04-25T05:25:18;7.13;;;2.20;;
29662;SDS011;16578;53.266;7.920;2023-04-25T05:27:43;8.40;;;2.58;;
29662;SDS011;16578;53.266;7.920;2023-04-25T05:30:09;9.18;;;2.45;;
29662;SDS011;16578;53.266;7.920;2023-04-25T05:32:35;6.38;;;2.05;;
29662;SDS011;16578;53.266;7.920;2023-04-25T05:35:01;8.82;;;2.72;;
29662;SDS011;16578;53.266;7.920;2023-04-25T05:37:27;12.82;;;2.58;;
29662;SDS011;16578;53.266;7.920;2023-04-25T05:39:55;8.97;;;2.20;;
29662;SDS011;16578;53.266;7.920;2023-04-25T05:42:21;9.70;;;2.50;;
29662;SDS011;16578;53.266;7.920;2023-04-25T05:44:46;10.82;;;2.47;;
29662;SDS011;16578;53.266;7.920;2023-04-25T05:47:12;8.27;;;2.03;;
29662;SDS011;16578;53.266;7.920;2023-04-25T05:49:37;3.88;;;2.03;;
29662;SDS011;16578;53.266;7.920;2023-04-25T05:52:03;5.22;;;2.38;;
29662;SDS011;16578;53.266;7.920;2023-04-25T05:54:28;7.93;;;1.90;;
29662;SDS011;16578;53.266;7.920;2023-04-25T05:56:55;6.88;;;2.08;;
29662;SDS011;16578;53.266;7.920;2023-04-25T05:59:21;7.00;;;2.13;;
29662;SDS011;16578;53.266;7.920;2023-04-25T06:01:47;4.97;;;1.98;;
29662;SDS011;16578;53.266;7.920;2023-04-25T06:04:12;7.70;;;2.30;;
29662;SDS011;16578;53.266;7.920;2023-04-25T06:06:38;7.80;;;1.90;;
29662;SDS011;16578;53.266;7.920;2023-04-25T06:09:04;8.98;;;2.35;;
29662;SDS011;16578;53.266;7.920;2023-04-25T06:11:29;8.45;;;2.10;;
29662;SDS011;16578;53.266;7.920;2023-04-25T06:13:55;5.97;;;1.80;;
29662;SDS011;16578;53.266;7.920;2023-04-25T06:16:20;11.93;;;2.70;;
29662;SDS011;16578;53.266;7.920;2023-04-25T06:18:46;11.13;;;2.40;;
29662;SDS011;16578;53.266;7.920;2023-04-25T06:21:11;4.45;;;1.67;;
29662;SDS011;16578;53.266;7.920;2023-04-25T06:23:37;6.50;;;2.17;;
29662;SDS011;16578;53.266;7.920;2023-04-25T06:26:02;7.07;;;1.58;;
29662;SDS011;16578;53.266;7.920;2023-04-25T06:28:28;6.50;;;2.15;;
29662;SDS011;16578;53.266;7.920;2023-04-25T06:30:54;9.30;;;2.47;;
29662;SDS011;16578;53.266;7.920;2023-04-25T06:33:19;7.00;;;1.98;;
29662;SDS011;16578;53.266;7.920;2023-04-25T06:35:46;10.98;;;2.53;;
29662;SDS011;16578;53.266;7.920;2023-04-25T06:38:12;7.93;;;2.45;;
29662;SDS011;16578;53.266;7.920;2023-04-25T06:40:37;9.45;;;1.90;;
29662;SDS011;16578;53.266;7.920;2023-04-25T06:43:03;8.68;;;1.60;;
29662;SDS011;16578;53.266;7.920;2023-04-25T06:45:28;11.80;;;1.98;;
29662;SDS011;16578;53.266;7.920;2023-04-25T06:47:54;8.05;;;2.20;;
29662;SDS011;16578;53.266;7.920;2023-04-25T06:50:20;5.68;;;1.73;;
29662;SDS011;16578;53.266;7.920;2023-04-25T06:52:45;8.85;;;2.55;;
29662;SDS011;16578;53.266;7.920;2023-04-25T06:55:11;7.38;;;1.88;;
29662;SDS011;16578;53.266;7.920;2023-04-25T06:57:36;7.85;;;1.80;;
29662;SDS011;16578;53.266;7.920;2023-04-25T07:00:02;10.00;;;1.95;;
29662;SDS011;16578;53.266;7.920;2023-04-25T07:02:30;10.18;;;2.22;;
29662;SDS011;16578;53.266;7.920;2023-04-25T07:04:56;8.77;;;2.05;;
29662;SDS011;16578;53.266;7.920;2023-04-25T07:09:50;7.70;;;1.77;;
29662;SDS011;16578;53.266;7.920;2023-04-25T07:12:16;8.60;;;2.13;;
29662;SDS011;16578;53.266;7.920;2023-04-25T07:14:41;5.38;;;1.77;;
29662;SDS011;16578;53.266;7.920;2023-04-25T07:17:07;6.97;;;1.40;;
29662;SDS011;16578;53.266;7.920;2023-04-25T07:19:32;5.63;;;1.35;;
29662;SDS011;16578;53.266;7.920;2023-04-25T07:21:58;7.65;;;1.95;;
29662;SDS011;16578;53.266;7.920;2023-04-25T07:24:24;4.82;;;1.73;;
29662;SDS011;16578;53.266;7.920;2023-04-25T07:26:49;2.35;;;1.10;;
29662;SDS011;16578;53.266;7.920;2023-04-25T07:29:15;3.78;;;1.30;;
29662;SDS011;16578;53.266;7.920;2023-04-25T07:31:41;3.03;;;1.63;;
29662;SDS011;16578;53.266;7.920;2023-04-25T07:34:06;6.10;;;1.73;;
29662;SDS011;16578;53.266;7.920;2023-04-25T07:36:32;6.75;;;1.55;;
29662;SDS011;16578;53.266;7.920;2023-04-25T07:38:58;6.28;;;1.77;;
29662;SDS011;16578;53.266;7.920;2023-04-25T07:41:23;7.20;;;2.17;;
29662;SDS011;16578;53.266;7.920;2023-04-25T07:43:49;7.18;;;1.70;;
29662;SDS011;16578;53.266;7.920;2023-04-25T07:46:14;7.00;;;1.88;;
29662;SDS011;16578;53.266;7.920;2023-04-25T07:48:40;5.78;;;2.00;;
29662;SDS011;16578;53.266;7.920;2023-04-25T07:51:05;6.93;;;1.80;;
29662;SDS011;16578;53.266;7.920;2023-04-25T07:53:32;5.30;;;1.80;;
29662;SDS011;16578;53.266;7.920;2023-04-25T07:55:59;7.43;;;2.08;;
29662;SDS011;16578;53.266;7.920;2023-04-25T07:58:25;3.63;;;1.60;;
29662;SDS011;16578;53.266;7.920;2023-04-25T08:00:50;5.43;;;2.15;;
29662;SDS011;16578;53.266;7.920;2023-04-25T08:03:16;3.83;;;1.75;;
29662;SDS011;16578;53.266;7.920;2023-04-25T08:05:42;8.30;;;1.77;;
29662;SDS011;16578;53.266;7.920;2023-04-25T08:08:07;5.75;;;1.50;;
29662;SDS011;16578;53.266;7.920;2023-04-25T08:10:33;6.03;;;1.85;;
29662;SDS011;16578;53.266;7.920;2023-04-25T08:12:59;6.32;;;1.60;;
29662;SDS011;16578;53.266;7.920;2023-04-25T08:15:24;6.18;;;1.73;;
29662;SDS011;16578;53.266;7.920;2023-04-25T08:17:51;6.93;;;2.13;;
29662;SDS011;16578;53.266;7.920;2023-04-25T08:20:16;6.80;;;2.00;;
29662;SDS011;16578;53.266;7.920;2023-04-25T08:22:42;3.67;;;1.60;;
29662;SDS011;16578;53.266;7.920;2023-04-25T08:25:08;6.45;;;1.35;;
29662;SDS011;16578;53.266;7.920;2023-04-25T08:27:34;5.07;;;1.20;;
29662;SDS011;16578;53.266;7.920;2023-04-25T08:29:59;5.22;;;1.92;;
29662;SDS011;16578;53.266;7.920;2023-04-25T08:32:25;4.65;;;1.20;;
29662;SDS011;16578;53.266;7.920;2023-04-25T08:34:51;4.82;;;1.45;;
29662;SDS011;16578;53.266;7.920;2023-04-25T08:37:19;6.50;;;1.38;;
29662;SDS011;16578;53.266;7.920;2023-04-25T08:39:45;4.40;;;1.50;;
29662;SDS011;16578;53.266;7.920;2023-04-25T08:42:13;5.15;;;1.40;;
29662;SDS011;16578;53.266;7.920;2023-04-25T08:44:40;6.60;;;1.75;;
29662;SDS011;16578;53.266;7.920;2023-04-25T08:47:05;7.35;;;2.13;;
29662;SDS011;16578;53.266;7.920;2023-04-25T08:49:31;4.20;;;1.73;;
29662;SDS011;16578;53.266;7.920;2023-04-25T08:52:02;3.45;;;1.35;;
29662;SDS011;16578;53.266;7.920;2023-04-25T08:54:30;6.78;;;1.88;;
29662;SDS011;16578;53.266;7.920;2023-04-25T08:56:57;4.60;;;1.30;;
29662;SDS011;16578;53.266;7.920;2023-04-25T08:59:27;6.25;;;1.55;;
29662;SDS011;16578;53.266;7.920;2023-04-25T09:01:53;5.97;;;1.98;;
29662;SDS011;16578;53.266;7.920;2023-04-25T09:04:18;2.72;;;1.00;;
29662;SDS011;16578;53.266;7.920;2023-04-25T09:06:45;5.28;;;1.50;;
29662;SDS011;16578;53.266;7.920;2023-04-25T09:09:11;4.28;;;1.38;;
29662;SDS011;16578;53.266;7.920;2023-04-25T09:11:37;5.75;;;1.65;;
29662;SDS011;16578;53.266;7.920;2023-04-25T09:19:37;2.90;;;1.20;;
29662;SDS011;16578;53.266;7.920;2023-04-25T09:22:05;3.75;;;1.30;;
29662;SDS011;16578;53.266;7.920;2023-04-25T09:24:39;3.08;;;1.40;;
29662;SDS011;16578;53.266;7.920;2023-04-25T09:27:09;5.03;;;1.65;;
29662;SDS011;16578;53.266;7.920;2023-04-25T09:29:37;9.55;;;1.77;;
29662;SDS011;16578;53.266;7.920;2023-04-25T09:32:10;3.58;;;0.80;;
29662;SDS011;16578;53.266;7.920;2023-04-25T09:34:40;6.00;;;1.15;;
29662;SDS011;16578;53.266;7.920;2023-04-25T09:37:08;2.55;;;1.15;;
29662;SDS011;16578;53.266;7.920;2023-04-25T09:39:35;3.20;;;1.48;;
29662;SDS011;16578;53.266;7.920;2023-04-25T09:42:02;5.80;;;1.35;;
29662;SDS011;16578;53.266;7.920;2023-04-25T09:44:28;2.78;;;1.00;;
29662;SDS011;16578;53.266;7.920;2023-04-25T09:46:54;5.45;;;1.35;;
29662;SDS011;16578;53.266;7.920;2023-04-25T09:49:20;7.25;;;1.75;;
29662;SDS011;16578;53.266;7.920;2023-04-25T09:51:58;3.83;;;1.20;;
29662;SDS011;16578;53.266;7.920;2023-04-25T09:54:24;4.70;;;1.50;;
29662;SDS011;16578;53.266;7.920;2023-04-25T09:56:53;8.55;;;1.75;;
29662;SDS011;16578;53.266;7.920;2023-04-25T09:59:22;7.65;;;1.60;;
29662;SDS011;16578;53.266;7.920;2023-04-25T10:01:49;6.78;;;1.35;;
29662;SDS011;16578;53.266;7.920;2023-04-25T10:04:23;9.35;;;2.38;;
29662;SDS011;16578;53.266;7.920;2023-04-25T10:06:51;2.70;;;1.20;;
29662;SDS011;16578;53.266;7.920;2023-04-25T10:09:19;4.00;;;1.30;;
29662;SDS011;16578;53.266;7.920;2023-04-25T10:11:46;4.20;;;1.50;;
29662;SDS011;16578;53.266;7.920;2023-04-25T10:14:15;4.00;;;1.70;;
29662;SDS011;16578;53.266;7.920;2023-04-25T10:16:41;7.88;;;1.63;;
29662;SDS011;16578;53.266;7.920;2023-04-25T10:19:07;5.82;;;1.90;;
29662;SDS011;16578;53.266;7.920;2023-04-25T10:21:34;8.93;;;2.17;;
29662;SDS011;16578;53.266;7.920;2023-04-25T10:24:05;3.85;;;1.50;;
29662;SDS011;16578;53.266;7.920;2023-04-25T10:26:31;6.38;;;1.77;;
29662;SDS011;16578;53.266;7.920;2023-04-25T10:28:58;5.57;;;1.35;;
29662;SDS011;16578;53.266;7.920;2023-04-25T10:31:25;6.35;;;1.58;;
29662;SDS011;16578;53.266;7.920;2023-04-25T10:33:51;5.22;;;1.60;;
29662;SDS011;16578;53.266;7.920;2023-04-25T10:36:18;4.13;;;1.25;;
29662;SDS011;16578;53.266;7.920;2023-04-25T10:38:48;9.50;;;1.85;;
29662;SDS011;16578;53.266;7.920;2023-04-25T10:41:16;3.05;;;1.30;;
29662;SDS011;16578;53.266;7.920;2023-04-25T10:43:48;7.32;;;1.70;;
29662;SDS011;16578;53.266;7.920;2023-04-25T10:48:57;5.93;;;1.60;;
29662;SDS011;16578;53.266;7.920;2023-04-25T10:51:25;5.18;;;1.65;;
29662;SDS011;16578;53.266;7.920;2023-04-25T10:56:32;5.25;;;1.20;;
29662;SDS011;16578;53.266;7.920;2023-04-25T10:59:06;5.65;;;1.23;;
29662;SDS011;16578;53.266;7.920;2023-04-25T11:01:40;5.40;;;1.50;;
29662;SDS011;16578;53.266;7.920;2023-04-25T11:04:18;9.68;;;1.73;;
29662;SDS011;16578;53.266;7.920;2023-04-25T11:09:23;4.65;;;1.20;;
29662;SDS011;16578;53.266;7.920;2023-04-25T11:11:53;4.63;;;1.48;;
29662;SDS011;16578;53.266;7.920;2023-04-25T11:14:20;3.80;;;2.30;;
29662;SDS011;16578;53.266;7.920;2023-04-25T11:16:45;6.32;;;1.98;;
29662;SDS011;16578;53.266;7.920;2023-04-25T11:19:11;9.90;;;1.70;;
29662;SDS011;16578;53.266;7.920;2023-04-25T11:21:36;6.45;;;1.77;;
29662;SDS011;16578;53.266;7.920;2023-04-25T11:24:02;4.15;;;1.50;;
29662;SDS011;16578;53.266;7.920;2023-04-25T11:26:27;10.43;;;2.17;;
29662;SDS011;16578;53.266;7.920;2023-04-25T11:28:58;7.63;;;1.60;;
29662;SDS011;16578;53.266;7.920;2023-04-25T11:31:25;5.78;;;1.45;;
29662;SDS011;16578;53.266;7.920;2023-04-25T11:33:52;4.28;;;2.05;;
29662;SDS011;16578;53.266;7.920;2023-04-25T11:36:20;4.18;;;1.40;;
29662;SDS011;16578;53.266;7.920;2023-04-25T11:38:45;5.65;;;2.08;;
29662;SDS011;16578;53.266;7.920;2023-04-25T11:41:11;3.03;;;1.52;;
29662;SDS011;16578;53.266;7.920;2023-04-25T11:43:36;3.35;;;1.45;;
29662;SDS011;16578;53.266;7.920;2023-04-25T11:46:06;4.63;;;1.25;;
29662;SDS011;16578;53.266;7.920;2023-04-25T11:48:42;6.38;;;1.92;;
29662;SDS011;16578;53.266;7.920;2023-04-25T11:51:08;5.13;;;1.48;;
29662;SDS011;16578;53.266;7.920;2023-04-25T11:53:34;4.25;;;1.58;;
29662;SDS011;16578;53.266;7.920;2023-04-25T11:56:00;1.98;;;1.15;;
29662;SDS011;16578;53.266;7.920;2023-04-25T11:58:27;4.03;;;1.40;;
29662;SDS011;16578;53.266;7.920;2023-04-25T12:00:52;2.55;;;0.98;;
29662;SDS011;16578;53.266;7.920;2023-04-25T12:03:18;5.80;;;0.93;;
29662;SDS011;16578;53.266;7.920;2023-04-25T12:05:45;6.68;;;1.40;;
29662;SDS011;16578;53.266;7.920;2023-04-25T12:08:11;5.00;;;1.75;;
29662;SDS011;16578;53.266;7.920;2023-04-25T12:10:38;3.97;;;1.58;;
29662;SDS011;16578;53.266;7.920;2023-04-25T12:13:21;9.25;;;1.80;;
29662;SDS011;16578;53.266;7.920;2023-04-25T12:15:48;9.93;;;1.92;;
29662;SDS011;16578;53.266;7.920;2023-04-25T12:18:14;5.78;;;1.48;;
29662;SDS011;16578;53.266;7.920;2023-04-25T12:20:43;5.10;;;1.25;;
29662;SDS011;16578;53.266;7.920;2023-04-25T12:23:09;3.75;;;1.23;;
29662;SDS011;16578;53.266;7.920;2023-04-25T12:25:42;7.78;;;1.15;;
29662;SDS011;16578;53.266;7.920;2023-04-25T12:28:14;3.92;;;1.10;;
29662;SDS011;16578;53.266;7.920;2023-04-25T12:31:00;3.55;;;1.15;;
29662;SDS011;16578;53.266;7.920;2023-04-25T12:33:28;2.60;;;1.08;;
29662;SDS011;16578;53.266;7.920;2023-04-25T12:35:58;3.47;;;1.17;;
29662;SDS011;16578;53.266;7.920;2023-04-25T12:38:29;4.43;;;1.40;;
29662;SDS011;16578;53.266;7.920;2023-04-25T12:40:56;5.55;;;1.20;;
29662;SDS011;16578;53.266;7.920;2023-04-25T12:43:22;3.08;;;1.48;;
29662;SDS011;16578;53.266;7.920;2023-04-25T12:45:48;5.25;;;1.17;;
29662;SDS011;16578;53.266;7.920;2023-04-25T12:48:15;3.30;;;1.20;;
29662;SDS011;16578;53.266;7.920;2023-04-25T12:50:41;4.53;;;1.55;;
29662;SDS011;16578;53.266;7.920;2023-04-25T12:53:07;2.88;;;1.35;;
29662;SDS011;16578;53.266;7.920;2023-04-25T12:55:33;5.13;;;1.50;;
29662;SDS011;16578;53.266;7.920;2023-04-25T12:57:58;4.82;;;1.00;;
29662;SDS011;16578;53.266;7.920;2023-04-25T13:00:24;8.18;;;1.92;;
29662;SDS011;16578;53.266;7.920;2023-04-25T13:02:50;4.50;;;1.60;;
29662;SDS011;16578;53.266;7.920;2023-04-25T13:05:15;5.72;;;1.98;;
29662;SDS011;16578;53.266;7.920;2023-04-25T13:07:41;5.38;;;1.55;;
29662;SDS011;16578;53.266;7.920;2023-04-25T13:10:06;4.50;;;1.90;;
29662;SDS011;16578;53.266;7.920;2023-04-25T13:12:32;8.18;;;1.92;;
29662;SDS011;16578;53.266;7.920;2023-04-25T13:14:58;6.45;;;2.08;;
29662;SDS011;16578;53.266;7.920;2023-04-25T13:17:23;4.93;;;2.00;;
29662;SDS011;16578;53.266;7.920;2023-04-25T13:19:49;4.82;;;1.52;;
29662;SDS011;16578;53.266;7.920;2023-04-25T13:22:15;7.63;;;2.30;;
29662;SDS011;16578;53.266;7.920;2023-04-25T13:24:42;5.65;;;1.63;;
29662;SDS011;16578;53.266;7.920;2023-04-25T13:27:08;7.18;;;1.42;;
29662;SDS011;16578;53.266;7.920;2023-04-25T13:29:33;3.80;;;1.20;;
29662;SDS011;16578;53.266;7.920;2023-04-25T13:32:00;2.38;;;1.45;;
29662;SDS011;16578;53.266;7.920;2023-04-25T13:34:26;3.55;;;1.33;;
29662;SDS011;16578;53.266;7.920;2023-04-25T13:36:53;6.05;;;1.67;;
29662;SDS011;16578;53.266;7.920;2023-04-25T13:39:18;8.65;;;1.80;;
29662;SDS011;16578;53.266;7.920;2023-04-25T13:41:44;5.93;;;1.88;;
29662;SDS011;16578;53.266;7.920;2023-04-25T13:44:10;8.40;;;2.08;;
29662;SDS011;16578;53.266;7.920;2023-04-25T13:46:35;5.72;;;1.85;;
29662;SDS011;16578;53.266;7.920;2023-04-25T13:49:02;5.38;;;1.90;;
29662;SDS011;16578;53.266;7.920;2023-04-25T13:51:30;6.25;;;2.03;;
29662;SDS011;16578;53.266;7.920;2023-04-25T13:53:56;7.75;;;2.38;;
29662;SDS011;16578;53.266;7.920;2023-04-25T13:56:22;6.10;;;1.90;;
29662;SDS011;16578;53.266;7.920;2023-04-25T13:58:48;12.38;;;1.88;;
29662;SDS011;16578;53.266;7.920;2023-04-25T14:01:15;5.70;;;1.85;;
29662;SDS011;16578;53.266;7.920;2023-04-25T14:03:40;4.65;;;1.33;;
29662;SDS011;16578;53.266;7.920;2023-04-25T14:06:07;7.13;;;1.65;;
29662;SDS011;16578;53.266;7.920;2023-04-25T14:08:33;3.97;;;1.60;;
29662;SDS011;16578;53.266;7.920;2023-04-25T14:10:59;2.78;;;1.20;;
29662;SDS011;16578;53.266;7.920;2023-04-25T14:13:25;5.32;;;1.63;;
29662;SDS011;16578;53.266;7.920;2023-04-25T14:15:51;4.82;;;1.27;;
29662;SDS011;16578;53.266;7.920;2023-04-25T14:18:17;4.93;;;1.83;;
29662;SDS011;16578;53.266;7.920;2023-04-25T14:20:43;5.78;;;1.73;;
29662;SDS011;16578;53.266;7.920;2023-04-25T14:23:08;7.32;;;1.85;;
29662;SDS011;16578;53.266;7.920;2023-04-25T14:25:34;7.85;;;1.73;;
29662;SDS011;16578;53.266;7.920;2023-04-25T14:28:01;3.13;;;1.20;;
29662;SDS011;16578;53.266;7.920;2023-04-25T14:30:26;6.88;;;1.20;;
29662;SDS011;16578;53.266;7.920;2023-04-25T14:32:52;6.20;;;1.17;;
29662;SDS011;16578;53.266;7.920;2023-04-25T14:35:17;5.45;;;1.92;;
29662;SDS011;16578;53.266;7.920;2023-04-25T14:37:43;4.55;;;1.48;;
29662;SDS011;16578;53.266;7.920;2023-04-25T14:40:09;3.28;;;1.42;;
29662;SDS011;16578;53.266;7.920;2023-04-25T14:42:35;4.43;;;2.00;;
29662;SDS011;16578;53.266;7.920;2023-04-25T14:45:02;4.70;;;1.42;;
29662;SDS011;16578;53.266;7.920;2023-04-25T14:47:29;4.28;;;1.48;;
29662;SDS011;16578;53.266;7.920;2023-04-25T14:49:54;3.00;;;1.38;;
29662;SDS011;16578;53.266;7.920;2023-04-25T14:52:21;3.05;;;1.10;;
29662;SDS011;16578;53.266;7.920;2023-04-25T14:54:46;3.53;;;1.30;;
29662;SDS011;16578;53.266;7.920;2023-04-25T14:57:12;4.68;;;1.20;;
29662;SDS011;16578;53.266;7.920;2023-04-25T14:59:38;3.78;;;1.50;;